Home > Products > Valid Products > TAF

000
FTUS45 KPIH 060500
TAFSUN
TAF
KSUN 060521Z 0606/0706 31008KT P6SM SCT140
     FM061900 11009KT P6SM SKC
     FM070400 31008KT P6SM SKC
      AMD LTD TO CLD VIS AND WIND TIL 061400=



000
FTUS45 KPIH 060500
TAFIDA
TAF
KIDA 060521Z 0606/0706 VRB05KT P6SM FEW200=



000
FTUS45 KPIH 060500
TAFBYI
TAF
KBYI 060521Z 0606/0706 21008KT P6SM FEW200
     FM060900 VRB05KT P6SM SKC=



000
FTUS45 KPIH 060500
TAFPIH
TAF
KPIH 060521Z 0606/0706 19011KT P6SM FEW200
     FM060900 VRB05KT P6SM SKC=



000
FTUS45 KPIH 060500
TAFBYI
TAF
KBYI 060521Z 0606/0706 21008KT P6SM FEW200
     FM060900 VRB05KT P6SM SKC=



000
FTUS45 KPIH 060500
TAFIDA
TAF
KIDA 060521Z 0606/0706 VRB05KT P6SM FEW200=



000
FTUS45 KPIH 060500
TAFSUN
TAF
KSUN 060521Z 0606/0706 31008KT P6SM SCT140
     FM061900 11009KT P6SM SKC
     FM070400 31008KT P6SM SKC
      AMD LTD TO CLD VIS AND WIND TIL 061400=



000
FTUS45 KPIH 060500
TAFPIH
TAF
KPIH 060521Z 0606/0706 19011KT P6SM FEW200
     FM060900 VRB05KT P6SM SKC=



000
FTUS45 KPIH 052300
TAFSUN
TAF
KSUN 052320Z 0600/0624 11008KT P6SM FEW160
     FM060400 31008KT P6SM FEW160
     FM061900 11009KT P6SM FEW160
      AMD LTD TO CLD VIS AND WIND 0606/0614=



000
FTUS45 KPIH 052300
TAFPIH
TAF
KPIH 052320Z 0600/0624 22012KT P6SM FEW160
     FM060300 20008KT P6SM FEW160
     FM061800 24011KT P6SM FEW160=



000
FTUS45 KPIH 052300
TAFBYI
TAF
KBYI 052320Z 0600/0624 VRB05KT P6SM FEW160=



000
FTUS45 KPIH 052300
TAFIDA
TAF
KIDA 052320Z 0600/0624 22012KT P6SM FEW160
     FM060100 VRB05KT P6SM FEW160
     FM061800 22011KT P6SM FEW160=



000
FTUS45 KPIH 052100 AAA
TAFIDA
TAF AMD
KIDA 052111Z 0521/0618 22012KT P6SM FEW200
     FM060300 VRB05KT P6SM FEW200=



000
FTUS45 KPIH 052100 AAA
TAFIDA
TAF AMD
KIDA 052111Z 0521/0618 22012KT P6SM FEW200
     FM060300 VRB05KT P6SM FEW200=



000
FTUS45 KPIH 052100 AAA
TAFPIH
TAF AMD
KPIH 052109Z 0521/0618 24012KT P6SM FEW200
     FM060300 VRB05KT P6SM FEW200=



000
FTUS45 KPIH 051700
TAFSUN
TAF
KSUN 051720Z 0518/0618 32008KT P6SM FEW200
     FM051900 14008KT P6SM FEW200
     FM060400 31008KT P6SM FEW200=



000
FTUS45 KPIH 051700
TAFBYI
TAF
KBYI 051720Z 0518/0618 VRB05KT P6SM FEW200=



000
FTUS45 KPIH 051700
TAFIDA
TAF
KIDA 051720Z 0518/0618 VRB05KT P6SM FEW200=



000
FTUS45 KPIH 051700
TAFPIH
TAF
KPIH 051720Z 0518/0618 VRB05KT P6SM FEW200
     FM051900 21010KT P6SM FEW200
     FM060300 VRB05KT P6SM FEW200=



000
FTUS45 KPIH 051100
TAFPIH
TAF
KPIH 051120Z 0512/0612 VRB05KT P6SM FEW200=



000
FTUS45 KPIH 051100
TAFSUN
TAF
KSUN 051120Z 0512/0612 32008KT P6SM FEW200
     FM051800 14008KT P6SM FEW200
     FM060400 31008KT P6SM FEW200
      AMD LTD TO CLD VIS AND WIND TIL 051400=



000
FTUS45 KPIH 051100
TAFBYI
TAF
KBYI 051120Z 0512/0612 VRB05KT P6SM FEW200=



000
FTUS45 KPIH 051100
TAFIDA
TAF
KIDA 051120Z 0512/0612 VRB05KT P6SM FEW200=



000
FTUS45 KPIH 050500
TAFPIH
TAF
KPIH 050523Z 0506/0606 21009KT P6SM FEW200
     FM050900 VRB05KT P6SM SCT200=



000
FTUS45 KPIH 050500
TAFSUN
TAF
KSUN 050523Z 0506/0606 32011KT P6SM FEW200
     FM051800 14008KT P6SM FEW200
     FM060400 31008KT P6SM FEW200
      AMD LTD TO CLD VIS AND WIND TIL 051400=



000
FTUS45 KPIH 050500
TAFBYI
TAF
KBYI 050523Z 0506/0606 VRB05KT P6SM SKC=



000
FTUS45 KPIH 050500
TAFIDA
TAF
KIDA 050523Z 0506/0606 VRB05KT P6SM FEW200=



000
FTUS45 KPIH 042300
TAFPIH
TAF
KPIH 042323Z 0500/0524 VRB05KT P6SM FEW060=



000
FTUS45 KPIH 042300
TAFSUN
TAF
KSUN 042323Z 0500/0524 13008KT P6SM SKC
     FM050400 32011KT P6SM FEW200
     FM051800 14008KT P6SM FEW200
      AMD LTD TO CLD VIS AND WIND 0506/0514=



000
FTUS45 KPIH 042300
TAFIDA
TAF
KIDA 042323Z 0500/0524 VRB05KT P6SM FEW060=



000
FTUS45 KPIH 042300
TAFBYI
TAF
KBYI 042323Z 0500/0524 27011KT P6SM SKC
     FM050200 VRB05KT P6SM SKC=



000
FTUS45 KPIH 041700
TAFPIH
TAF
KPIH 041736Z 0418/0518 VRB04KT P6SM SKC
     FM041900 24008KT P6SM SKC
     FM050300 VRB04KT P6SM SCT060=



000
FTUS45 KPIH 041700
TAFSUN
TAF
KSUN 041736Z 0418/0518 33008KT P6SM SKC
     FM041900 16006KT P6SM FEW090
     FM050400 32008KT P6SM SCT200=



000
FTUS45 KPIH 041700
TAFIDA
TAF
KIDA 041736Z 0418/0518 36005KT P6SM SKC
     FM042000 22010KT P6SM SKC
     FM050300 VRB04KT P6SM BKN060=



000
FTUS45 KPIH 041700
TAFSUN
TAF
KSUN 041736Z 0418/0518 33008KT P6SM SKC
     FM041900 16006KT P6SM FEW090
     FM050400 32008KT P6SM SCT200=



000
FTUS45 KPIH 041700
TAFPIH
TAF
KPIH 041736Z 0418/0518 VRB04KT P6SM SKC
     FM041900 24008KT P6SM SKC
     FM050300 VRB04KT P6SM SCT060=



000
FTUS45 KPIH 041700
TAFBYI
TAF
KBYI 041736Z 0418/0518 VRB06KT P6SM SKC=



000
FTUS45 KPIH 041700
TAFIDA
TAF
KIDA 041736Z 0418/0518 36005KT P6SM SKC
     FM042000 22010KT P6SM SKC
     FM050300 VRB04KT P6SM BKN060=



000
FTUS45 KPIH 041700
TAFBYI
TAF
KBYI 041736Z 0418/0518 VRB06KT P6SM SKC=



000
FTUS45 KPIH 041100
TAFSUN
TAF
KSUN 041120Z 0412/0512 33008KT P6SM SKC
     FM041800 16006KT P6SM FEW090
     FM050400 32008KT P6SM SKC
      AMD LTD TO CLD VIS AND WIND TIL 041400=



000
FTUS45 KPIH 041100
TAFIDA
TAF
KIDA 041120Z 0412/0512 VRB05KT P6SM SKC
     FM041800 22010KT P6SM SKC
     FM050300 VRB04KT P6SM SKC=



000
FTUS45 KPIH 041100
TAFBYI
TAF
KBYI 041120Z 0412/0512 VRB06KT P6SM SKC=



000
FTUS45 KPIH 041100
TAFPIH
TAF
KPIH 041120Z 0412/0512 VRB04KT P6SM SKC
     FM041800 24008KT P6SM SKC=



000
FTUS45 KPIH 040500
TAFIDA
TAF
KIDA 040520Z 0406/0506 VRB06KT P6SM BKN040
     FM040900 VRB06KT P6SM SKC=



000
FTUS45 KPIH 040500
TAFPIH
TAF
KPIH 040520Z 0406/0506 21010KT P6SM SCT070
     FM040800 VRB06KT P6SM SKC=



000
FTUS45 KPIH 040500
TAFBYI
TAF
KBYI 040520Z 0406/0506 25012KT P6SM SKC
     FM040900 VRB06KT P6SM SKC=



000
FTUS45 KPIH 040500
TAFSUN
TAF
KSUN 040520Z 0406/0506 34008KT P6SM SKC
     FM041800 16006KT P6SM FEW030
     FM050400 32008KT P6SM SKC
      AMD LTD TO CLD VIS AND WIND TIL 041400=



000
FTUS45 KPIH 040300 AAA
TAFSUN
TAF AMD
KSUN 040325Z 0403/0424 34008KT P6SM FEW060
     FM041800 16006KT P6SM FEW030
      AMD LTD TO CLD VIS AND WIND 0406/0414=



000
FTUS45 KPIH 040100 AAA
TAFPIH
TAF AMD
KPIH 040122Z 0401/0424 24007KT P6SM VCSH SCT035 BKN050
      TEMPO 0402/0403 P6SM -SHSN
     FM040800 VRB06KT P6SM SKC=



000
FTUS45 KPIH 040100 AAA
TAFPIH
TAF AMD
KPIH 040122Z 0401/0424 24007KT P6SM VCSH SCT035 BKN050
      TEMPO 0402/0403 P6SM -SHSN
     FM040800 VRB06KT P6SM SKC=



000
FTUS45 KPIH 040100 AAA
TAFBYI
TAF AMD
KBYI 040112Z 0401/0424 27015KT P6SM -SHRASN BKN050
     FM040200 VRB06KT P6SM SCT035 BKN050
     FM040600 VRB06KT P6SM SKC=



000
FTUS45 KPIH 032300
TAFIDA
TAF
KIDA 032320Z 0400/0424 VRB06KT P6SM SCT035 BKN050
     FM040700 VRB06KT P6SM SKC=



000
FTUS45 KPIH 032300
TAFPIH
TAF
KPIH 032320Z 0400/0424 24007KT P6SM SCT035 BKN050
     FM040800 VRB06KT P6SM SKC=



000
FTUS45 KPIH 032300
TAFSUN
TAF
KSUN 032320Z 0400/0424 14010G20KT P6SM SCT030 BKN070
     FM040400 32009KT P6SM FEW070
     FM041800 16006KT P6SM FEW030
      AMD LTD TO CLD VIS AND WIND 0406/0414=



000
FTUS45 KPIH 032300
TAFBYI
TAF
KBYI 032320Z 0400/0424 VRB06KT P6SM SCT035 BKN050
     FM040600 VRB06KT P6SM SKC=



000
FTUS45 KPIH 032100 AAB
TAFBYI
TAF AMD
KBYI 032146Z 0322/0418 VRB06KT P6SM SCT035
     FM041200 VRB06KT 6SM BR BKN020 OVC035=



000
FTUS45 KPIH 032100 AAB
TAFBYI
TAF AMD
KBYI 032146Z 0322/0418 VRB06KT P6SM SCT035
     FM041200 VRB06KT 6SM BR BKN020 OVC035=



000
FTUS45 KPIH 032100 AAA
TAFBYI
TAF AMD
KBYI 032109Z 0321/0418 VRB06KT P6SM BKN027
     FM040000 VRB06KT P6SM BKN035
     FM041200 VRB06KT 6SM BR BKN020 OVC035=



000
FTUS45 KPIH 032100 AAA
TAFBYI
TAF AMD
KBYI 032109Z 0321/0418 VRB06KT P6SM BKN027
     FM040000 VRB06KT P6SM BKN035
     FM041200 VRB06KT 6SM BR BKN020 OVC035=



000
FTUS45 KPIH 032100 AAA
TAFIDA
TAF AMD
KIDA 032106Z 0321/0418 01008KT P6SM FEW035
     FM040100 VRB06KT P6SM SCT025 BKN035=



000
FTUS45 KPIH 032100 AAA
TAFPIH
TAF AMD
KPIH 032104Z 0321/0418 08009KT P6SM FEW035
     FM040000 VRB06KT P6SM SCT025 BKN035=



000
FTUS45 KPIH 032000 AAA
TAFSUN
TAF AMD
KSUN 032020Z 0320/0418 14011KT P6SM SCT020 BKN050
     FM040400 32009KT P6SM FEW050=



000
FTUS45 KPIH 032000 AAA
TAFSUN
TAF AMD
KSUN 032020Z 0320/0418 14011KT P6SM SCT020 BKN050
     FM040400 32009KT P6SM FEW050=



000
FTUS45 KPIH 031700
TAFSUN
TAF
KSUN 031721Z 0318/0418 12006KT P6SM FEW010 BKN050
     FM040400 32009KT P6SM FEW050=



000
FTUS45 KPIH 031700
TAFBYI
TAF
KBYI 031721Z 0318/0418 28012G22KT 2SM -SN BR SCT010 BKN020
      TEMPO 0318/0319 1/4SM SN FZFG BKN008
     FM031900 26010KT P6SM VCSH SCT020 BKN040
     FM040200 VRB06KT P6SM SCT040 BKN070
     FM041200 VRB06KT 6SM BR BKN020 OVC040=



000
FTUS45 KPIH 031700
TAFPIH
TAF
KPIH 031721Z 0318/0418 04012G18KT P6SM VCSH FEW020 SCT080
     FM040000 VRB06KT P6SM SCT025 BKN035=



000
FTUS45 KPIH 031700
TAFIDA
TAF
KIDA 031721Z 0318/0418 02012G18KT P6SM VCSH FEW020 SCT080
     FM040100 VRB06KT P6SM SCT025 BKN035=



000
FTUS45 KPIH 031400 AAA
TAFBYI
TAF AMD
KBYI 031424Z 0314/0412 27015G25KT P6SM VCSH SCT020 BKN050
     FM031600 28015G25KT 2SM -SN BR SCT010 BKN020
     FM031900 26010KT P6SM VCSH SCT020 BKN040
     FM040200 VRB06KT P6SM SCT040 BKN070=



000
FTUS45 KPIH 031400 AAA
TAFBYI
TAF AMD
KBYI 031424Z 0314/0412 27015G25KT P6SM VCSH SCT020 BKN050
     FM031600 28015G25KT 2SM -SN BR SCT010 BKN020
     FM031900 26010KT P6SM VCSH SCT020 BKN040
     FM040200 VRB06KT P6SM SCT040 BKN070=



000
FTUS45 KPIH 031300 AAC
TAFPIH
TAF AMD
KPIH 031320Z 0313/0412 04012G22KT 1SM -SN BR BKN015
      TEMPO 0313/0315 1/2SM SN OVC007
     FM031600 02010G20KT P6SM VCSH SCT020 BKN080
     FM040000 VRB06KT P6SM BKN035=



000
FTUS45 KPIH 031200 AAB
TAFPIH
TAF AMD
KPIH 031256Z 0313/0412 02012G22KT 1SM -SN BR BKN015
      TEMPO 0313/0315 1/2SM SN OVC007
     FM031600 02010G20KT P6SM VCSH SCT020 BKN080
     FM040000 VRB06KT P6SM BKN035=



000
FTUS45 KPIH 031200 AAA
TAFPIH
TAF AMD
KPIH 031235Z 0313/0412 02012G22KT 1SM -SN BR BKN015
      TEMPO 0313/0315 3/4SM -SN BR OVC007
     FM031600 02010G20KT P6SM VCSH SCT020 BKN080
     FM040000 VRB06KT P6SM BKN035=



000
FTUS45 KPIH 031200 AAA
TAFPIH
TAF AMD
KPIH 031235Z 0313/0412 02012G22KT 1SM -SN BR BKN015
      TEMPO 0313/0315 3/4SM -SN BR OVC007
     FM031600 02010G20KT P6SM VCSH SCT020 BKN080
     FM040000 VRB06KT P6SM BKN035=



000
FTUS45 KPIH 031100 CCA
TAFPIH
TAF COR
KPIH 031135Z 0312/0412 25015G25KT P6SM VCSH BKN025
      TEMPO 0312/0313 1SM -SN BR OVC010
     FM031300 01011G21KT 1SM -SN BR BKN007
     FM031600 02010G20KT P6SM VCSH SCT020 BKN080
     FM040000 VRB06KT P6SM BKN035=



000
FTUS45 KPIH 031100 CCA
TAFPIH
TAF COR
KPIH 031135Z 0312/0412 25015G25KT P6SM VCSH BKN025
      TEMPO 0312/0313 1SM -SN BR OVC010
     FM031300 01011G21KT 1SM -SN BR BKN007
     FM031600 02010G20KT P6SM VCSH SCT020 BKN080
     FM040000 VRB06KT P6SM BKN035=



000
FTUS45 KPIH 031100 CCA
TAFIDA
TAF COR
KIDA 031127Z 0312/0412 03015G25KT 2SM -SN BR BKN010
      TEMPO 0312/0315 3/4SM -SN BR OVC008
     FM031500 01012G22KT P6SM VCSH SCT020 BKN060
     FM040200 VRB06KT P6SM FEW080=



000
FTUS45 KPIH 031100 CCA
TAFIDA
TAF COR
KIDA 031127Z 0312/0412 03015G25KT 2SM -SN BR BKN010
      TEMPO 0312/0315 3/4SM -SN BR OVC008
     FM031500 01012G22KT P6SM VCSH SCT020 BKN060
     FM040200 VRB06KT P6SM FEW080=



000
FTUS45 KPIH 031100
TAFBYI
TAF
KBYI 031120Z 0312/0412 27015G25KT P6SM VCSH SCT020 BKN050
     FM031400 28015G25KT 2SM -SN BR SCT010 BKN020
     FM031900 26010KT P6SM VCSH SCT020 BKN040
     FM040200 VRB06KT P6SM SCT040 BKN070=



000
FTUS45 KPIH 031100
TAFIDA
TAF
KIDA 031120Z 0312/0412 36015G25KT 2SM -SN BR BKN015
      TEMPO 0312/0315 1SM -SN BR OVC008
     FM031500 01012G22KT P6SM VCSH SCT020 BKN060
     FM040200 VRB06KT P6SM FEW080=



000
FTUS45 KPIH 031100
TAFPIH
TAF
KPIH 031120Z 0312/0412 24015KT P6SM VCSH BKN025
      TEMPO 0312/0313 1SM -SN BR OVC010
     FM031300 01011G21KT 1SM -SN BR BKN007
     FM031600 02010G20KT P6SM VCSH SCT020 BKN080
     FM040000 VRB06KT P6SM BKN035=



000
FTUS45 KPIH 031100
TAFSUN
TAF
KSUN 031120Z 0312/0412 31008KT P6SM VCSH OVC080
     FM031800 VRB06KT P6SM SCT030 BKN050
     FM040400 32009KT P6SM FEW050
      AMD LTD TO CLD VIS AND WIND TIL 031400=



    US Dept of Commerce
    National Oceanic and Atmospheric Administration
    National Weather Service
    1325 East West Highway
    Silver Spring, MD 20910
    Page Author: NWS Internet Services Team
Disclaimer
Information Quality
Credits
Glossary
Privacy Policy
Freedom of Information Act (FOIA)
About Us
Career Opportunities